Milan, GA

11:05 PM EDT on July 25, 2014 (GMT -0400)
SW of Chauncey (KGACHAUN2) Elev 367 ft | 32.08 °N, 83.10 °W | Change Station

Current weather conditions updated 1 second ago

Overcast
Overcast
79.7 °F
Feels Like 79 °F
N
0.0
Wind Variable Wind from NNW
Gusts 0.0 mph

Tomorrow is forecast to be Cooler than today.

Today
High -- | Low -- °F
--% Chance of Precip.
Yesterday
High -- | Low -- °F
Precip. -- in
6:43 AM 8:34 PM
Waning Crescent, 1% visible
Pressure 30.07 in
Visibility 10.0 miles
Clouds Scattered Clouds 5000 ft
Mostly Cloudy 6000 ft
Overcast 12000 ft
Heat Index 79 °F
Dew Point 50 °F
Humidity 35%
Rainfall 0.00 in
Snow Depth Not available.
UV 0 out of 12
Pollen 4.30 out of 12
Air Quality Not available.
Flu Activity Not available.
METAR KEZM 260255Z AUTO 31004KT 10SM -VCTSRA SCT050 BKN060 OVC120 25/25 A3007 RMK AO2 LTG DSNT ALQS T02470247

More Conditions Fewer Conditions

Pressure 30.07 in
Visibility 10.0 miles
Clouds Scattered Clouds 5000 ft
Mostly Cloudy 6000 ft
Overcast 12000 ft
Heat Index 79 °F
Dew Point 50 °F
Humidity 35%
Rainfall 0.00 in
Snow Depth Not available.
UV 0 out of 12
Pollen 4.30 out of 12
Air Quality Not available.
Flu Activity Not available.
METAR KEZM 260255Z AUTO 31004KT 10SM -VCTSRA SCT050 BKN060 OVC120 25/25 A3007 RMK AO2 LTG DSNT ALQS T02470247

More Conditions Fewer Conditions

10-Day Weather Forecast

Almanac

Astronomy

Jul. 25, 2014 Rise Set
Actual Time 6:43 AM EDT 8:34 PM EDT
Civil Twilight 6:16 AM EDT 9:01 PM EDT
Nautical Twilight 5:43 AM EDT 9:33 PM EDT
Astronomical Twilight 5:08 AM EDT 10:08 PM EDT
Moon 5:39 AM EDT (7/25) 7:33 PM EDT (7/25)
Length of Visible Light 14h 44m
Length of Day
13h 50m
Tomorrow will be 1m 18s shorter.
Waning Crescent, 1% of the Moon is Illuminated
Today
Waning Crescent
Jul 26
New
Aug 3
First Quarter
Aug 10
Full
Aug 17
Last Quarter

Today's Extremes

State Highs State Lows

Community

WunderPhotos

Upload Photos

1,737,492 photos uploaded!

Nearby

Snow Depth

Station Depth Elevation
No new snow has been reported.

Earthquake Activity

City Distance Mag. Time & Date
No recent earthquake activity has been reported nearby.
Minimum magnitude displayed is 2.5.

Coastal Water Temperatures

Place Temperature
No Stations Reporting

Nearby Weather Stations

Station Location Temp. Heat Index Dew Point Humidity Wind Precip. Elev Updated Type
SW of Chauncey, Chauncey, GA 79.7 °F 79 °F 50 °F 35% NNW  at  0.0 mph 0.00 in / hr 367 ft 11:05 PM EDT Rapid Fire
Jacksonville, GA 79.4 °F 83 °F 75 °F 85% SE  at  0.0 mph 0.00 in / hr 171 ft 10:50 PM EDT Normal
RAWS MCRAE GA, McRae, GA 83 °F 88 °F 72 °F 69% SSW  at  5 mph 0.00 in / hr 201 ft 10:03 PM EDT MADIS
Abbeville, GA, Abbeville, GA 79.5 °F 83 °F 72 °F 78% ENE  at  2.7 mph - / hr 253 ft 10:53 PM EDT Normal
Eastman, Eastman, GA 76.1 °F 75 °F 76 °F 99% NNW  at  4.7 mph - / hr 381 ft 10:54 PM EDT Normal
Alamo, Alamo, GA 78.6 °F 82 °F 73 °F 83% West  at  0.0 mph - / hr 259 ft 10:50 PM EDT Normal

Show More Stations Show Fewer Stations